createdAt,value
2023-02-14T00:02:26.812Z,97152.63
2023-02-14T00:05:12.640Z,97167.66
2023-02-14T00:07:58.496Z,97161.84
2023-02-14T00:10:44.386Z,97165.56
2023-02-14T00:13:30.320Z,97167.44
2023-02-14T00:16:16.319Z,97175.38
2023-02-14T00:19:04.848Z,97174.66
2023-02-14T00:21:51.672Z,97187.97
2023-02-14T00:24:37.563Z,97170.50
2023-02-14T00:27:23.402Z,97165.94
2023-02-14T00:30:11.272Z,97181.19
2023-02-14T00:32:57.483Z,97157.06
2023-02-14T00:35:43.360Z,97167.09
2023-02-14T00:38:29.357Z,97171.66
2023-02-14T00:41:19.287Z,97167.41
2023-02-14T00:44:05.923Z,97169.31
2023-02-14T00:46:52.139Z,97172.81
2023-02-14T00:49:37.939Z,97160.00
2023-02-14T00:52:23.802Z,97165.41
2023-02-14T00:55:09.739Z,97156.59
2023-02-14T00:57:55.567Z,97136.94
2023-02-14T01:00:41.654Z,97136.28
2023-02-14T01:03:28.252Z,97168.25
2023-02-14T01:06:14.935Z,97152.03
2023-02-14T01:09:00.963Z,97145.38
2023-02-14T01:11:46.765Z,97167.59
2023-02-14T01:14:33.643Z,97168.44
2023-02-14T01:17:19.451Z,97159.00
2023-02-14T01:20:07.659Z,97152.16
2023-02-14T01:22:53.620Z,97146.22
2023-02-14T01:25:40.006Z,97143.97
2023-02-14T01:28:25.740Z,97166.22
2023-02-14T01:31:14.908Z,97156.59
2023-02-14T01:34:00.679Z,97146.97
2023-02-14T01:36:48.022Z,97143.69
2023-02-14T01:39:33.788Z,97133.41
2023-02-14T01:42:19.606Z,97117.38
2023-02-14T01:45:15.322Z,97137.94
2023-02-14T01:48:01.513Z,97123.63
2023-02-14T01:50:49.018Z,97127.34
2023-02-14T01:53:34.794Z,97124.81
2023-02-14T01:56:28.723Z,97125.25
2023-02-14T01:59:18.147Z,97109.69
2023-02-14T02:02:05.197Z,97106.63
2023-02-14T02:04:54.255Z,97088.72
2023-02-14T02:07:40.283Z,97110.94
2023-02-14T02:10:26.387Z,97109.06
2023-02-14T02:13:18.110Z,97120.59
2023-02-14T02:16:28.991Z,97117.31
2023-02-14T02:19:21.732Z,97119.31
2023-02-14T02:22:26.407Z,97106.50
2023-02-14T02:25:45.579Z,97127.44
2023-02-14T02:28:53.228Z,97118.03
2023-02-14T02:31:42.336Z,97115.94
2023-02-14T02:35:06.171Z,97111.88
2023-02-14T02:38:28.554Z,97119.06
2023-02-14T02:41:28.653Z,97112.16
2023-02-14T02:44:19.237Z,97108.84
2023-02-14T02:47:16.652Z,97105.44
2023-02-14T02:50:37.961Z,97085.66
2023-02-14T02:53:54.498Z,97105.34
2023-02-14T02:56:49.906Z,97108.91
2023-02-14T02:59:39.927Z,97097.84
2023-02-14T03:02:54.838Z,97085.03
2023-02-14T03:05:41.364Z,97074.59
2023-02-14T03:08:27.417Z,97070.16
2023-02-14T03:11:13.557Z,97075.53
2023-02-14T03:14:19.288Z,97051.22
2023-02-14T03:17:14.566Z,97069.31
2023-02-14T03:20:17.835Z,97076.19
2023-02-14T03:23:04.093Z,97090.34
2023-02-14T03:26:07.012Z,97100.19
2023-02-14T03:28:58.910Z,97098.56
2023-02-14T03:32:09.457Z,97081.63
2023-02-14T03:35:23.516Z,97098.81
2023-02-14T03:38:31.475Z,97095.94
2023-02-14T03:41:23.300Z,97089.69
2023-02-14T03:44:11.503Z,97102.28
2023-02-14T03:47:10.966Z,97092.88
2023-02-14T03:50:04.275Z,97099.53
2023-02-14T03:52:52.638Z,97082.41
2023-02-14T03:55:47.824Z,97075.31
2023-02-14T03:58:46.351Z,97061.88
2023-02-14T04:02:03.651Z,97078.84
2023-02-14T04:04:51.317Z,97083.06
2023-02-14T04:07:46.519Z,97074.78
2023-02-14T04:10:32.577Z,97062.84
2023-02-14T04:13:18.456Z,97065.38
2023-02-14T04:16:04.640Z,97058.22
2023-02-14T04:19:08.997Z,97050.78
2023-02-14T04:21:55.235Z,97062.84
2023-02-14T04:24:40.917Z,97072.94
2023-02-14T04:27:26.805Z,97053.31
2023-02-14T04:30:13.064Z,97066.03
2023-02-14T04:32:58.735Z,97055.56
2023-02-14T04:35:44.645Z,97065.41
2023-02-14T04:38:32.319Z,97054.19
2023-02-14T04:41:18.208Z,97032.81
2023-02-14T04:44:04.174Z,97039.41
2023-02-14T04:46:50.087Z,97050.38
2023-02-14T04:49:36.388Z,97052.06
2023-02-14T04:52:22.258Z,97037.81
2023-02-14T04:55:09.327Z,97036.31
2023-02-14T04:57:55.670Z,97019.47
2023-02-14T05:00:41.328Z,97034.72
2023-02-14T05:03:27.234Z,97019.41
2023-02-14T05:06:13.126Z,97031.22
2023-02-14T05:08:59.230Z,97033.78
2023-02-14T05:11:45.147Z,97029.66
2023-02-14T05:14:31.015Z,97021.59
2023-02-14T05:17:16.862Z,96986.69
2023-02-14T05:20:04.098Z,97013.56
2023-02-14T05:22:49.996Z,97009.34
2023-02-14T05:25:35.676Z,97016.31
2023-02-14T05:28:21.714Z,97011.78
2023-02-14T05:31:08.265Z,97004.78
2023-02-14T05:33:54.552Z,97014.19
2023-02-14T05:36:40.449Z,97009.75
2023-02-14T05:39:26.368Z,97022.25
2023-02-14T05:42:12.103Z,97028.50
2023-02-14T05:44:58.042Z,97023.31
2023-02-14T05:47:43.844Z,97041.72
2023-02-14T05:50:30.079Z,97042.75
2023-02-14T05:53:16.648Z,97046.22
2023-02-14T05:56:02.654Z,97039.19
2023-02-14T05:58:48.841Z,97032.41
2023-02-14T06:01:34.578Z,97018.41
2023-02-14T06:04:20.370Z,97027.31
2023-02-14T06:07:06.244Z,97039.50
2023-02-14T06:09:52.066Z,97029.53
2023-02-14T06:12:37.945Z,97025.97
2023-02-14T06:15:24.038Z,97032.81
2023-02-14T06:18:10.039Z,97026.88
2023-02-14T06:20:56.303Z,97039.19
2023-02-14T06:23:42.320Z,97032.16
2023-02-14T06:26:28.309Z,97033.88
2023-02-14T06:29:16.903Z,97036.84
2023-02-14T06:32:06.743Z,97032.50
2023-02-14T06:34:52.932Z,97018.88
2023-02-14T06:37:42.136Z,97030.50
2023-02-14T06:40:28.334Z,97036.13
2023-02-14T06:43:14.043Z,97021.59
2023-02-14T06:45:59.965Z,97034.00
2023-02-14T06:48:45.629Z,97031.25
2023-02-14T06:51:31.559Z,97041.63
2023-02-14T06:54:17.356Z,97029.22
2023-02-14T06:57:03.468Z,97021.31
2023-02-14T06:59:49.482Z,97017.81
2023-02-14T07:02:35.516Z,97017.38
2023-02-14T07:05:21.955Z,97013.78
2023-02-14T07:08:08.304Z,97011.66
2023-02-14T07:10:58.887Z,97006.47
2023-02-14T07:13:45.414Z,97003.63
2023-02-14T07:16:31.101Z,96999.16
2023-02-14T07:19:17.178Z,96999.91
2023-02-14T07:22:02.943Z,96976.63
2023-02-14T07:24:48.769Z,97001.59
2023-02-14T07:27:34.823Z,96999.44
2023-02-14T07:30:20.560Z,96993.00
2023-02-14T07:33:06.571Z,96998.81
2023-02-14T07:35:52.440Z,96994.47
2023-02-14T07:38:38.458Z,96988.97
2023-02-14T07:41:24.579Z,96987.47
2023-02-14T07:44:10.691Z,96988.31
2023-02-14T07:46:56.488Z,96989.66
2023-02-14T07:49:42.360Z,96971.47
2023-02-14T07:52:28.118Z,96985.53
2023-02-14T07:55:14.445Z,96988.16
2023-02-14T07:58:00.906Z,96997.97
2023-02-14T08:00:46.953Z,96975.66
2023-02-14T08:03:33.024Z,96970.84
2023-02-14T08:06:19.329Z,96978.69
2023-02-14T08:09:05.575Z,96988.28
2023-02-14T08:12:15.184Z,96989.09
2023-02-14T08:15:20.999Z,96987.38
2023-02-14T08:18:07.152Z,96987.56
2023-02-14T08:20:53.340Z,96991.84
2023-02-14T08:23:39.401Z,97003.28
2023-02-14T08:26:25.420Z,96992.84
2023-02-14T08:29:11.480Z,97000.13
2023-02-14T08:32:00.326Z,96996.25
2023-02-14T08:34:47.258Z,96988.63
2023-02-14T08:37:32.937Z,96981.19
2023-02-14T08:40:19.862Z,96981.09
2023-02-14T08:43:06.927Z,96981.38
2023-02-14T08:45:53.957Z,96987.66
2023-02-14T08:48:39.730Z,96998.41
2023-02-14T08:51:26.201Z,96999.50
2023-02-14T08:54:11.964Z,96993.72
2023-02-14T08:56:58.130Z,97000.25
2023-02-14T08:59:44.938Z,97000.72
2023-02-14T09:02:30.695Z,97010.00
2023-02-14T09:05:16.745Z,97017.81
2023-02-14T09:08:03.134Z,97013.25
2023-02-14T09:10:49.246Z,97022.72
2023-02-14T09:13:35.091Z,97012.09
2023-02-14T09:16:22.069Z,97028.38
2023-02-14T09:19:07.879Z,97024.00
2023-02-14T09:21:53.743Z,97017.97
2023-02-14T09:24:41.515Z,97003.97
2023-02-14T09:27:28.197Z,96988.25
2023-02-14T09:30:14.681Z,97019.38
2023-02-14T09:33:00.476Z,97008.88
2023-02-14T09:35:46.706Z,97019.47
2023-02-14T09:38:32.567Z,97016.56
2023-02-14T09:41:50.193Z,97004.16
2023-02-14T09:44:39.105Z,97006.19
2023-02-14T09:48:00.144Z,97032.38
2023-02-14T09:50:49.188Z,97023.09
2023-02-14T09:53:45.834Z,97021.13
2023-02-14T09:56:52.176Z,97026.03
2023-02-14T10:00:11.149Z,97008.78
2023-02-14T10:03:12.204Z,97023.25
2023-02-14T10:06:07.439Z,97018.81
2023-02-14T10:09:01.244Z,96999.81
2023-02-14T10:11:48.173Z,97003.75
2023-02-14T10:14:40.406Z,97012.91
2023-02-14T10:17:42.838Z,97013.50
2023-02-14T10:20:35.791Z,96998.59
2023-02-14T10:23:26.459Z,96990.91
2023-02-14T10:26:20.787Z,96975.41
2023-02-14T10:29:14.312Z,96986.84
2023-02-14T10:32:02.532Z,96978.13
2023-02-14T10:34:50.452Z,96968.69
2023-02-14T10:37:51.268Z,96954.88
2023-02-14T10:40:55.630Z,96968.94
2023-02-14T10:43:53.662Z,96948.53
2023-02-14T10:47:04.059Z,96947.91
2023-02-14T10:49:58.308Z,96942.13
2023-02-14T10:53:19.162Z,96927.00
2023-02-14T10:56:08.976Z,96916.06
2023-02-14T10:58:56.801Z,96919.91
2023-02-14T11:01:42.904Z,96926.97
2023-02-14T11:04:30.990Z,96921.91
2023-02-14T11:07:19.106Z,96895.47
2023-02-14T11:10:11.458Z,96899.69
2023-02-14T11:12:58.070Z,96913.41
2023-02-14T11:15:46.320Z,96921.47
2023-02-14T11:18:35.720Z,96911.53
2023-02-14T11:21:24.388Z,96912.09
2023-02-14T11:24:29.323Z,96923.59
2023-02-14T11:27:17.543Z,96918.47
2023-02-14T11:30:13.587Z,96925.22
2023-02-14T11:33:00.436Z,96913.44
2023-02-14T11:35:50.932Z,96884.09
2023-02-14T11:38:40.068Z,96909.94
2023-02-14T11:41:26.153Z,96908.41
2023-02-14T11:44:22.463Z,96901.81
2023-02-14T11:47:29.336Z,96901.38
2023-02-14T11:50:24.786Z,96888.72
2023-02-14T11:53:12.482Z,96886.94
2023-02-14T11:56:00.771Z,96876.00
2023-02-14T11:58:56.746Z,96869.28
2023-02-14T12:01:46.228Z,96871.78
2023-02-14T12:04:38.181Z,96870.94
2023-02-14T12:07:34.429Z,96867.59
2023-02-14T12:10:27.714Z,96857.50
2023-02-14T12:13:13.682Z,96862.28
2023-02-14T12:16:00.443Z,96838.72
2023-02-14T12:18:54.421Z,96823.28
2023-02-14T12:22:01.034Z,96854.13
2023-02-14T12:24:52.837Z,96857.41
2023-02-14T12:27:48.125Z,96852.31
2023-02-14T12:30:35.299Z,96836.19
2023-02-14T12:33:22.248Z,96850.47
2023-02-14T12:36:39.555Z,96853.28
2023-02-14T12:39:42.450Z,96845.97
2023-02-14T12:42:47.396Z,96835.03
2023-02-14T12:46:04.116Z,96828.47
2023-02-14T12:49:28.947Z,96842.38
2023-02-14T12:52:33.227Z,96840.94
2023-02-14T12:55:48.679Z,96843.47
2023-02-14T12:58:49.777Z,96851.31
2023-02-14T13:01:56.385Z,96841.97
2023-02-14T13:04:53.606Z,96831.16
2023-02-14T13:08:04.363Z,96820.19
2023-02-14T13:11:22.066Z,96833.13
2023-02-14T13:14:43.089Z,96819.31
2023-02-14T13:17:35.059Z,96832.56
2023-02-14T13:20:39.020Z,96821.59
2023-02-14T13:23:40.037Z,96821.44
2023-02-14T13:26:30.446Z,96810.59
2023-02-14T13:29:20.539Z,96814.63
2023-02-14T13:32:06.700Z,96804.19
2023-02-14T13:34:53.218Z,96805.16
2023-02-14T13:37:39.276Z,96812.44
2023-02-14T13:40:26.501Z,96820.81
2023-02-14T13:43:12.264Z,96817.84
2023-02-14T13:45:58.162Z,96805.97
2023-02-14T13:48:55.949Z,96822.91
2023-02-14T13:51:45.021Z,96825.06
2023-02-14T13:54:31.111Z,96823.34
2023-02-14T13:57:32.491Z,96818.91
2023-02-14T14:00:21.402Z,96827.22
2023-02-14T14:03:13.753Z,96804.38
2023-02-14T14:06:13.255Z,96819.16
2023-02-14T14:08:58.981Z,96823.19
2023-02-14T14:11:44.833Z,96815.38
2023-02-14T14:14:36.217Z,96799.06
2023-02-14T14:17:26.051Z,96804.56
2023-02-14T14:20:21.303Z,96806.72
2023-02-14T14:23:28.647Z,96801.22
2023-02-14T14:26:36.853Z,96800.53
2023-02-14T14:29:45.610Z,96802.19
2023-02-14T14:32:36.969Z,96784.81
2023-02-14T14:35:24.883Z,96803.03
2023-02-14T14:38:13.831Z,96791.50
2023-02-14T14:41:01.232Z,96800.38
2023-02-14T14:43:47.624Z,96775.41
2023-02-14T14:46:33.693Z,96773.59
2023-02-14T14:49:21.366Z,96773.72
2023-02-14T14:52:08.130Z,96781.72
2023-02-14T14:54:53.804Z,96776.41
2023-02-14T14:57:40.055Z,96763.91
2023-02-14T15:00:29.879Z,96770.41
2023-02-14T15:03:18.255Z,96783.72
2023-02-14T15:06:07.025Z,96756.78
2023-02-14T15:08:52.934Z,96781.31
2023-02-14T15:11:57.466Z,96766.88
2023-02-14T15:14:46.476Z,96764.47
2023-02-14T15:17:32.777Z,96788.91
2023-02-14T15:20:21.730Z,96795.25
2023-02-14T15:23:08.034Z,96790.16
2023-02-14T15:25:53.873Z,96787.66
2023-02-14T15:28:39.727Z,96799.00
2023-02-14T15:31:29.497Z,96799.84
2023-02-14T15:34:15.829Z,96788.50
2023-02-14T15:37:06.734Z,96793.53
2023-02-14T15:39:57.824Z,96787.78
2023-02-14T15:42:44.828Z,96789.75
2023-02-14T15:45:31.292Z,96782.31
2023-02-14T15:48:27.073Z,96786.94
2023-02-14T15:51:25.223Z,96791.28
2023-02-14T15:54:33.438Z,96783.16
2023-02-14T15:57:29.904Z,96789.88
2023-02-14T16:00:18.052Z,96805.16
2023-02-14T16:03:07.415Z,96794.34
2023-02-14T16:05:54.873Z,96805.72
2023-02-14T16:08:41.751Z,96811.28
2023-02-14T16:11:33.326Z,96784.91
2023-02-14T16:14:42.820Z,96809.47
2023-02-14T16:17:34.656Z,96817.03
2023-02-14T16:20:21.272Z,96817.03
2023-02-14T16:23:17.825Z,96816.34
2023-02-14T16:26:06.816Z,96833.00
2023-02-14T16:28:52.779Z,96807.34
2023-02-14T16:31:51.900Z,96812.81
2023-02-14T16:34:48.389Z,96832.16
2023-02-14T16:37:34.855Z,96842.34
2023-02-14T16:40:25.044Z,96841.66
2023-02-14T16:43:19.501Z,96853.69
2023-02-14T16:46:05.680Z,96861.28
2023-02-14T16:48:54.576Z,96860.16
2023-02-14T16:51:43.464Z,96846.00
2023-02-14T16:54:29.701Z,96863.50
2023-02-14T16:57:42.511Z,96856.19
2023-02-14T17:00:28.640Z,96862.84
2023-02-14T17:03:14.443Z,96871.34
2023-02-14T17:06:00.678Z,96867.97
2023-02-14T17:08:47.610Z,96862.50
2023-02-14T17:11:41.196Z,96858.13
2023-02-14T17:14:30.135Z,96858.31
2023-02-14T17:17:17.544Z,96875.38
2023-02-14T17:20:06.039Z,96846.38
2023-02-14T17:22:52.276Z,96863.75
2023-02-14T17:25:38.834Z,96841.72
2023-02-14T17:28:26.644Z,96850.28
2023-02-14T17:31:13.188Z,96871.31
2023-02-14T17:33:59.251Z,96875.28
2023-02-14T17:36:45.470Z,96861.34
2023-02-14T17:39:31.323Z,96872.31
2023-02-14T17:42:17.006Z,96862.97
2023-02-14T17:45:06.128Z,96864.34
2023-02-14T17:47:52.401Z,96859.97
2023-02-14T17:50:38.203Z,96861.84
2023-02-14T17:53:23.912Z,96868.53
2023-02-14T17:56:11.913Z,96876.53
2023-02-14T17:58:59.874Z,96872.31
2023-02-14T18:01:45.963Z,96882.09
2023-02-14T18:04:35.005Z,96864.31
2023-02-14T18:07:21.503Z,96870.22
2023-02-14T18:10:08.481Z,96878.22
2023-02-14T18:12:54.414Z,96883.63
2023-02-14T18:15:40.277Z,96869.16
2023-02-14T18:18:26.216Z,96882.50
2023-02-14T18:21:14.179Z,96887.00
2023-02-14T18:24:00.673Z,96870.19
2023-02-14T18:26:47.047Z,96878.16
2023-02-14T18:29:33.971Z,96876.34
2023-02-14T18:32:20.175Z,96879.81
2023-02-14T18:35:06.243Z,96877.16
2023-02-14T18:37:52.473Z,96893.94
2023-02-14T18:40:38.658Z,96879.13
2023-02-14T18:43:24.778Z,96888.13
2023-02-14T18:46:25.736Z,96879.81
2023-02-14T18:49:13.400Z,96893.44
2023-02-14T18:51:59.450Z,96893.31
2023-02-14T18:54:45.194Z,96897.59
2023-02-14T18:57:31.533Z,96896.56
2023-02-14T19:00:17.891Z,96893.41
2023-02-14T19:03:03.589Z,96895.06
2023-02-14T19:05:49.635Z,96902.66
2023-02-14T19:08:37.719Z,96891.00
2023-02-14T19:11:31.351Z,96899.97
2023-02-14T19:14:18.361Z,96893.91
2023-02-14T19:17:04.947Z,96905.28
2023-02-14T19:19:54.436Z,96899.13
2023-02-14T19:22:41.437Z,96891.00
2023-02-14T19:25:29.522Z,96890.34
2023-02-14T19:28:15.786Z,96907.09
2023-02-14T19:31:02.405Z,96910.19
2023-02-14T19:33:48.949Z,96910.72
2023-02-14T19:36:37.582Z,96898.63
2023-02-14T19:39:24.585Z,96912.41
2023-02-14T19:42:10.759Z,96920.25
2023-02-14T19:44:59.121Z,96917.41
2023-02-14T19:47:47.310Z,96920.78
2023-02-14T19:50:33.759Z,96925.97
2023-02-14T19:53:19.547Z,96934.72
2023-02-14T19:56:06.411Z,96935.31
2023-02-14T19:58:52.839Z,96922.13
2023-02-14T20:01:42.188Z,96916.66
2023-02-14T20:04:29.759Z,96919.56
2023-02-14T20:07:17.473Z,96940.66
2023-02-14T20:10:04.622Z,96938.38
2023-02-14T20:12:50.774Z,96948.44
2023-02-14T20:15:37.578Z,96932.31
2023-02-14T20:18:23.880Z,96926.06
2023-02-14T20:21:16.808Z,96923.25
2023-02-14T20:24:03.153Z,96938.84
2023-02-14T20:26:50.822Z,96938.53
2023-02-14T20:29:39.067Z,96930.53
2023-02-14T20:32:25.261Z,96926.09
2023-02-14T20:35:11.628Z,96924.09
2023-02-14T20:37:57.760Z,96929.41
2023-02-14T20:40:44.666Z,96918.19
2023-02-14T20:43:30.752Z,96942.41
2023-02-14T20:46:17.060Z,96937.66
2023-02-14T20:49:03.780Z,96929.66
2023-02-14T20:51:50.364Z,96918.13
2023-02-14T20:54:38.878Z,96924.03
2023-02-14T20:57:25.331Z,96920.47
2023-02-14T21:00:11.538Z,96925.06
2023-02-14T21:02:57.565Z,96882.69
2023-02-14T21:05:43.371Z,96929.59
2023-02-14T21:08:29.372Z,96940.31
2023-02-14T21:11:17.497Z,96938.50
2023-02-14T21:14:03.564Z,96932.34
2023-02-14T21:16:49.510Z,96940.19
2023-02-14T21:19:35.701Z,96933.78
2023-02-14T21:22:21.665Z,96938.94
2023-02-14T21:25:07.963Z,96941.75
2023-02-14T21:27:54.337Z,96937.28
2023-02-14T21:30:40.438Z,96951.41
2023-02-14T21:33:31.966Z,96940.19
2023-02-14T21:36:23.117Z,96934.03
2023-02-14T21:39:09.662Z,96922.69
2023-02-14T21:41:56.344Z,96927.03
2023-02-14T21:45:00.805Z,96926.19
2023-02-14T21:48:06.759Z,96940.09
2023-02-14T21:50:52.789Z,96946.09
2023-02-14T21:53:38.886Z,96961.97
2023-02-14T21:56:24.842Z,96953.63
2023-02-14T21:59:11.516Z,96954.06
2023-02-14T22:01:58.978Z,96951.84
2023-02-14T22:04:45.728Z,96947.84
2023-02-14T22:07:31.652Z,96954.38
2023-02-14T22:10:17.492Z,96960.44
2023-02-14T22:13:03.303Z,96962.09
2023-02-14T22:15:49.605Z,96963.72
2023-02-14T22:18:35.680Z,96965.00
2023-02-14T22:21:24.129Z,96946.78
2023-02-14T22:24:10.417Z,96946.47
2023-02-14T22:26:56.205Z,96953.91
2023-02-14T22:29:42.599Z,96956.34
2023-02-14T22:32:29.157Z,96961.06
2023-02-14T22:35:15.021Z,96957.41
2023-02-14T22:38:01.037Z,96936.31
2023-02-14T22:40:46.792Z,96965.53
2023-02-14T22:43:32.673Z,96949.38
2023-02-14T22:46:21.553Z,96953.47
2023-02-14T22:49:07.579Z,96934.63
2023-02-14T22:51:53.562Z,96961.19
2023-02-14T22:54:39.558Z,96967.22
2023-02-14T22:57:25.806Z,96963.25
2023-02-14T23:00:12.029Z,96968.44
2023-02-14T23:02:57.990Z,96965.78
2023-02-14T23:05:43.832Z,96966.38
2023-02-14T23:08:29.789Z,96962.13
2023-02-14T23:11:20.762Z,96966.06
2023-02-14T23:14:25.223Z,96953.72
2023-02-14T23:17:18.559Z,96955.41
2023-02-14T23:20:23.592Z,96953.97
2023-02-14T23:23:09.646Z,96953.38
2023-02-14T23:25:55.673Z,96966.06
2023-02-14T23:28:41.417Z,96961.56
2023-02-14T23:31:27.360Z,96961.69
2023-02-14T23:34:13.433Z,96963.56
2023-02-14T23:36:59.861Z,96959.16
2023-02-14T23:39:45.898Z,96966.75
2023-02-14T23:42:31.819Z,96962.41
2023-02-14T23:45:35.770Z,96959.75
2023-02-14T23:48:21.726Z,96951.31
2023-02-14T23:51:07.664Z,96953.97
2023-02-14T23:53:54.617Z,96960.63
2023-02-14T23:56:40.815Z,96956.28
2023-02-14T23:59:27.380Z,96948.91
